sensor_id;sensor_type;location;lat;lon;timestamp;temperature;humidity
69739;DHT22;66905;51.012;4.724;2023-01-15T16:06:56;9.10;66.60
69739;DHT22;66905;51.012;4.724;2023-01-15T16:09:23;7.30;74.50
69739;DHT22;66905;51.012;4.724;2023-01-15T16:11:50;7.10;75.40
69739;DHT22;66905;51.012;4.724;2023-01-15T16:14:23;6.90;76.40
69739;DHT22;66905;51.012;4.724;2023-01-15T16:16:51;6.80;76.70
69739;DHT22;66905;51.012;4.724;2023-01-15T16:19:21;6.80;76.90
69739;DHT22;66905;51.012;4.724;2023-01-15T16:21:47;6.80;77.20
69739;DHT22;66905;51.012;4.724;2023-01-15T16:24:27;6.70;77.60
69739;DHT22;66905;51.012;4.724;2023-01-15T16:27:05;6.70;78.90
69739;DHT22;66905;51.012;4.724;2023-01-15T16:29:35;6.60;79.40
69739;DHT22;66905;51.012;4.724;2023-01-15T16:32:12;6.50;79.90
69739;DHT22;66905;51.012;4.724;2023-01-15T16:34:38;6.30;80.50
69739;DHT22;66905;51.012;4.724;2023-01-15T16:37:24;6.30;80.80
69739;DHT22;66905;51.012;4.724;2023-01-15T16:39:51;6.30;81.10
69739;DHT22;66905;51.012;4.724;2023-01-15T16:42:30;6.30;81.90
69739;DHT22;66905;51.012;4.724;2023-01-15T16:45:03;6.20;81.80
69739;DHT22;66905;51.012;4.724;2023-01-15T16:47:33;6.10;82.20
69739;DHT22;66905;51.012;4.724;2023-01-15T16:50:28;6.00;82.60
69739;DHT22;66905;51.012;4.724;2023-01-15T16:52:58;6.00;84.00
69739;DHT22;66905;51.012;4.724;2023-01-15T16:55:45;6.00;83.10
69739;DHT22;66905;51.012;4.724;2023-01-15T17:00:38;5.90;84.30
69739;DHT22;66905;51.012;4.724;2023-01-15T17:03:11;5.90;84.30
69739;DHT22;66905;51.012;4.724;2023-01-15T17:05:38;5.90;84.30
69739;DHT22;66905;51.012;4.724;2023-01-15T17:08:04;5.90;84.30
69739;DHT22;66905;51.012;4.724;2023-01-15T17:10:30;5.80;84.80
69739;DHT22;66905;51.012;4.724;2023-01-15T17:12:58;5.80;84.50
69739;DHT22;66905;51.012;4.724;2023-01-15T17:17:53;5.90;84.50
69739;DHT22;66905;51.012;4.724;2023-01-15T17:20:20;5.80;85.10
69739;DHT22;66905;51.012;4.724;2023-01-15T17:22:51;5.90;85.50
69739;DHT22;66905;51.012;4.724;2023-01-15T17:25:32;5.90;85.10
69739;DHT22;66905;51.012;4.724;2023-01-15T17:28:00;6.00;85.20
69739;DHT22;66905;51.012;4.724;2023-01-15T17:30:27;6.00;85.40
69739;DHT22;66905;51.012;4.724;2023-01-15T17:32:57;5.90;85.80
69739;DHT22;66905;51.012;4.724;2023-01-15T17:37:51;5.70;86.40
69739;DHT22;66905;51.012;4.724;2023-01-15T17:40:17;5.70;87.80
69739;DHT22;66905;51.012;4.724;2023-01-15T17:42:43;5.50;87.30
69739;DHT22;66905;51.012;4.724;2023-01-15T17:45:25;5.50;87.20
69739;DHT22;66905;51.012;4.724;2023-01-15T17:47:54;5.40;87.20
69739;DHT22;66905;51.012;4.724;2023-01-15T17:50:20;5.40;88.40
69739;DHT22;66905;51.012;4.724;2023-01-15T17:52:48;5.30;87.90
69739;DHT22;66905;51.012;4.724;2023-01-15T17:55:19;5.30;87.30
69739;DHT22;66905;51.012;4.724;2023-01-15T17:58:09;5.30;88.00
69739;DHT22;66905;51.012;4.724;2023-01-15T18:00:53;5.40;87.80
69739;DHT22;66905;51.012;4.724;2023-01-15T18:03:47;5.40;87.60
69739;DHT22;66905;51.012;4.724;2023-01-15T18:06:33;5.40;87.40
69739;DHT22;66905;51.012;4.724;2023-01-15T18:09:02;5.40;87.30
69739;DHT22;66905;51.012;4.724;2023-01-15T18:11:31;5.40;87.20
69739;DHT22;66905;51.012;4.724;2023-01-15T18:13:56;5.40;87.70
69739;DHT22;66905;51.012;4.724;2023-01-15T18:16:23;5.40;87.00
69739;DHT22;66905;51.012;4.724;2023-01-15T18:18:52;5.50;87.70
69739;DHT22;66905;51.012;4.724;2023-01-15T18:21:20;5.40;88.10
69739;DHT22;66905;51.012;4.724;2023-01-15T18:23:48;5.40;87.90
69739;DHT22;66905;51.012;4.724;2023-01-15T18:26:16;5.30;88.40
69739;DHT22;66905;51.012;4.724;2023-01-15T18:28:42;5.30;88.70
69739;DHT22;66905;51.012;4.724;2023-01-15T18:31:10;5.50;88.80
69739;DHT22;66905;51.012;4.724;2023-01-15T18:33:36;5.60;87.90
69739;DHT22;66905;51.012;4.724;2023-01-15T18:36:07;5.60;87.70
69739;DHT22;66905;51.012;4.724;2023-01-15T18:38:40;5.60;86.90
69739;DHT22;66905;51.012;4.724;2023-01-15T18:41:15;5.60;86.90
69739;DHT22;66905;51.012;4.724;2023-01-15T18:46:46;5.50;87.10
69739;DHT22;66905;51.012;4.724;2023-01-15T18:49:14;5.50;86.90
69739;DHT22;66905;51.012;4.724;2023-01-15T18:51:43;5.50;86.80
69739;DHT22;66905;51.012;4.724;2023-01-15T18:54:08;5.60;86.80
69739;DHT22;66905;51.012;4.724;2023-01-15T18:56:37;5.70;85.20
69739;DHT22;66905;51.012;4.724;2023-01-15T18:59:10;5.80;84.50
69739;DHT22;66905;51.012;4.724;2023-01-15T19:01:36;5.90;84.60
69739;DHT22;66905;51.012;4.724;2023-01-15T19:04:03;5.90;84.00
69739;DHT22;66905;51.012;4.724;2023-01-15T19:06:32;6.00;82.70
69739;DHT22;66905;51.012;4.724;2023-01-15T19:08:58;6.00;82.00
69739;DHT22;66905;51.012;4.724;2023-01-15T19:11:25;6.00;81.70
69739;DHT22;66905;51.012;4.724;2023-01-15T19:13:51;5.90;82.40
69739;DHT22;66905;51.012;4.724;2023-01-15T19:16:35;6.00;81.70
69739;DHT22;66905;51.012;4.724;2023-01-15T19:19:39;6.10;81.80
69739;DHT22;66905;51.012;4.724;2023-01-15T19:22:07;6.10;81.60
69739;DHT22;66905;51.012;4.724;2023-01-15T19:24:51;6.10;82.90
69739;DHT22;66905;51.012;4.724;2023-01-15T19:27:17;6.10;83.70
69739;DHT22;66905;51.012;4.724;2023-01-15T19:29:43;6.00;84.30
69739;DHT22;66905;51.012;4.724;2023-01-15T19:32:08;5.90;85.40
69739;DHT22;66905;51.012;4.724;2023-01-15T19:34:34;5.90;86.00
69739;DHT22;66905;51.012;4.724;2023-01-15T19:37:00;5.80;86.30
69739;DHT22;66905;51.012;4.724;2023-01-15T19:39:26;5.80;86.30
69739;DHT22;66905;51.012;4.724;2023-01-15T19:41:53;5.80;86.20
69739;DHT22;66905;51.012;4.724;2023-01-15T19:44:37;5.80;85.90
69739;DHT22;66905;51.012;4.724;2023-01-15T19:47:28;5.70;86.10
69739;DHT22;66905;51.012;4.724;2023-01-15T19:50:15;5.80;86.90
69739;DHT22;66905;51.012;4.724;2023-01-15T19:52:52;5.80;86.40
69739;DHT22;66905;51.012;4.724;2023-01-15T19:55:18;5.80;85.80
69739;DHT22;66905;51.012;4.724;2023-01-15T19:57:46;5.80;86.10
69739;DHT22;66905;51.012;4.724;2023-01-15T20:00:17;5.90;85.30
69739;DHT22;66905;51.012;4.724;2023-01-15T20:02:44;6.00;85.10
69739;DHT22;66905;51.012;4.724;2023-01-15T20:05:12;6.00;84.60
69739;DHT22;66905;51.012;4.724;2023-01-15T20:07:38;6.00;84.40
69739;DHT22;66905;51.012;4.724;2023-01-15T20:12:41;6.10;84.50
69739;DHT22;66905;51.012;4.724;2023-01-15T20:15:25;6.00;85.00
69739;DHT22;66905;51.012;4.724;2023-01-15T20:17:51;6.10;85.10
69739;DHT22;66905;51.012;4.724;2023-01-15T20:20:20;6.10;84.70
69739;DHT22;66905;51.012;4.724;2023-01-15T20:22:45;6.00;84.50
69739;DHT22;66905;51.012;4.724;2023-01-15T20:25:11;6.10;85.60
69739;DHT22;66905;51.012;4.724;2023-01-15T20:27:38;6.10;84.20
69739;DHT22;66905;51.012;4.724;2023-01-15T20:30:10;6.10;84.00
69739;DHT22;66905;51.012;4.724;2023-01-15T20:32:38;6.10;84.50
69739;DHT22;66905;51.012;4.724;2023-01-15T20:35:06;6.00;83.30
69739;DHT22;66905;51.012;4.724;2023-01-15T20:37:32;6.10;82.80
69739;DHT22;66905;51.012;4.724;2023-01-15T20:39:58;6.20;83.10
69739;DHT22;66905;51.012;4.724;2023-01-15T20:42:24;6.20;82.70
69739;DHT22;66905;51.012;4.724;2023-01-15T20:45:09;6.20;84.00
69739;DHT22;66905;51.012;4.724;2023-01-15T20:47:40;6.10;83.00
69739;DHT22;66905;51.012;4.724;2023-01-15T20:50:30;6.00;83.40
69739;DHT22;66905;51.012;4.724;2023-01-15T20:52:58;5.90;84.60
69739;DHT22;66905;51.012;4.724;2023-01-15T20:55:26;5.90;86.40
69739;DHT22;66905;51.012;4.724;2023-01-15T20:57:59;5.80;85.90
69739;DHT22;66905;51.012;4.724;2023-01-15T21:00:25;5.90;85.60
69739;DHT22;66905;51.012;4.724;2023-01-15T21:02:51;5.90;85.60
69739;DHT22;66905;51.012;4.724;2023-01-15T21:05:25;5.80;85.70
69739;DHT22;66905;51.012;4.724;2023-01-15T21:07:53;5.90;85.10
69739;DHT22;66905;51.012;4.724;2023-01-15T21:10:21;5.80;84.60
69739;DHT22;66905;51.012;4.724;2023-01-15T21:12:49;5.80;85.90
69739;DHT22;66905;51.012;4.724;2023-01-15T21:15:15;5.80;83.40
69739;DHT22;66905;51.012;4.724;2023-01-15T21:17:41;5.80;84.20
69739;DHT22;66905;51.012;4.724;2023-01-15T21:20:10;5.80;85.90
69739;DHT22;66905;51.012;4.724;2023-01-15T21:22:36;5.80;84.70
69739;DHT22;66905;51.012;4.724;2023-01-15T21:25:02;5.80;84.30
69739;DHT22;66905;51.012;4.724;2023-01-15T21:27:28;5.70;85.10
69739;DHT22;66905;51.012;4.724;2023-01-15T21:29:54;5.70;84.70
69739;DHT22;66905;51.012;4.724;2023-01-15T21:32:21;5.70;84.60
69739;DHT22;66905;51.012;4.724;2023-01-15T21:34:47;5.70;84.90
69739;DHT22;66905;51.012;4.724;2023-01-15T21:37:18;5.70;86.10
69739;DHT22;66905;51.012;4.724;2023-01-15T21:39:44;5.70;85.70
69739;DHT22;66905;51.012;4.724;2023-01-15T21:42:15;5.70;85.40
69739;DHT22;66905;51.012;4.724;2023-01-15T21:44:59;5.60;85.90
69739;DHT22;66905;51.012;4.724;2023-01-15T21:47:25;5.60;86.50
69739;DHT22;66905;51.012;4.724;2023-01-15T21:49:53;5.70;86.70
69739;DHT22;66905;51.012;4.724;2023-01-15T21:52:19;5.60;86.50
69739;DHT22;66905;51.012;4.724;2023-01-15T21:54:47;5.60;87.10
69739;DHT22;66905;51.012;4.724;2023-01-15T21:57:14;5.60;87.30
69739;DHT22;66905;51.012;4.724;2023-01-15T21:59:40;5.60;87.60
69739;DHT22;66905;51.012;4.724;2023-01-15T22:02:08;5.70;87.50
69739;DHT22;66905;51.012;4.724;2023-01-15T22:04:36;5.70;87.40
69739;DHT22;66905;51.012;4.724;2023-01-15T22:07:02;5.70;86.40
69739;DHT22;66905;51.012;4.724;2023-01-15T22:09:28;5.70;86.00
69739;DHT22;66905;51.012;4.724;2023-01-15T22:11:55;5.70;87.00
69739;DHT22;66905;51.012;4.724;2023-01-15T22:14:31;5.70;86.70
69739;DHT22;66905;51.012;4.724;2023-01-15T22:17:00;5.80;85.40
69739;DHT22;66905;51.012;4.724;2023-01-15T22:19:27;5.80;85.90
69739;DHT22;66905;51.012;4.724;2023-01-15T22:22:02;5.80;84.50
69739;DHT22;66905;51.012;4.724;2023-01-15T22:24:30;5.80;84.40
69739;DHT22;66905;51.012;4.724;2023-01-15T22:26:56;5.90;83.80
69739;DHT22;66905;51.012;4.724;2023-01-15T22:29:24;5.90;84.50
69739;DHT22;66905;51.012;4.724;2023-01-15T22:31:51;5.80;85.10
69739;DHT22;66905;51.012;4.724;2023-01-15T22:34:18;5.80;83.90
69739;DHT22;66905;51.012;4.724;2023-01-15T22:36:48;5.90;83.20
69739;DHT22;66905;51.012;4.724;2023-01-15T22:39:14;5.90;83.20
69739;DHT22;66905;51.012;4.724;2023-01-15T22:41:40;5.80;83.90
69739;DHT22;66905;51.012;4.724;2023-01-15T22:44:25;5.80;83.80
69739;DHT22;66905;51.012;4.724;2023-01-15T22:46:51;5.80;83.00
69739;DHT22;66905;51.012;4.724;2023-01-15T22:49:19;5.80;82.80
69739;DHT22;66905;51.012;4.724;2023-01-15T22:51:45;5.80;83.10
69739;DHT22;66905;51.012;4.724;2023-01-15T22:54:10;5.80;82.40
69739;DHT22;66905;51.012;4.724;2023-01-15T22:56:39;5.70;82.40
69739;DHT22;66905;51.012;4.724;2023-01-15T22:59:07;5.60;83.00
69739;DHT22;66905;51.012;4.724;2023-01-15T23:01:33;5.50;84.10
69739;DHT22;66905;51.012;4.724;2023-01-15T23:04:01;5.40;84.10
69739;DHT22;66905;51.012;4.724;2023-01-15T23:06:27;5.40;83.90
69739;DHT22;66905;51.012;4.724;2023-01-15T23:08:57;5.40;84.40
69739;DHT22;66905;51.012;4.724;2023-01-15T23:11:24;5.30;84.40
69739;DHT22;66905;51.012;4.724;2023-01-15T23:13:50;5.20;84.70
69739;DHT22;66905;51.012;4.724;2023-01-15T23:16:16;5.20;85.10
69739;DHT22;66905;51.012;4.724;2023-01-15T23:18:42;5.20;84.50
69739;DHT22;66905;51.012;4.724;2023-01-15T23:21:10;5.20;84.60
69739;DHT22;66905;51.012;4.724;2023-01-15T23:23:37;5.10;84.80
69739;DHT22;66905;51.012;4.724;2023-01-15T23:26:09;5.10;84.60
69739;DHT22;66905;51.012;4.724;2023-01-15T23:28:35;5.20;84.10
69739;DHT22;66905;51.012;4.724;2023-01-15T23:31:01;5.10;84.40
69739;DHT22;66905;51.012;4.724;2023-01-15T23:33:26;5.10;85.10
69739;DHT22;66905;51.012;4.724;2023-01-15T23:35:52;5.10;84.40
69739;DHT22;66905;51.012;4.724;2023-01-15T23:38:18;5.10;84.70
69739;DHT22;66905;51.012;4.724;2023-01-15T23:40:44;5.00;85.00
69739;DHT22;66905;51.012;4.724;2023-01-15T23:43:12;5.00;85.20
69739;DHT22;66905;51.012;4.724;2023-01-15T23:46:01;5.00;85.30
69739;DHT22;66905;51.012;4.724;2023-01-15T23:48:46;5.00;85.40
69739;DHT22;66905;51.012;4.724;2023-01-15T23:51:12;5.00;84.90
69739;DHT22;66905;51.012;4.724;2023-01-15T23:53:37;4.90;84.90
69739;DHT22;66905;51.012;4.724;2023-01-15T23:56:04;4.90;85.20
69739;DHT22;66905;51.012;4.724;2023-01-15T23:58:35;4.80;85.60
